Pagrindinis puslapis
METAR-TAF:

METAR-TAF

Oro uostai :

Ernšioldsvikas, Švedija

platuma: 63-24N, ilguma: 018-58E, Aukštis: 103 m

Dabartinis oras

Ataskaita buvo paskelbta 22 minutes, ne 11:50 UTC
Vėjas 6 kt iš Šiaurės/Šiaurės Vakarų
Temperatūra -10°C
Drėgmė 92%
Slėgis 993 hPa
Matomumas 10 km arba daugiau

METAR: ESNO 301150Z AUTO 34006KT 9999 FEW026/// M10/M11 Q0993

Laikas: 13:12 (12:12 UTC)

Prognozė

Ataskaita buvo paskelbta 6 valandos ir 42 minutes, ne 05:30 UTC
Prognozė galioja nuo 30 metu 06 UTC su 30 metu 10 UTC
Vėjas 6 kt iš Šiaurės
Matomumas 10 km arba daugiau
Su prošvaistėmis ne aukštis 2000 ft
Laikinai
nuo 30 metu 06 UTC su 30 metu 10 UTC
Matomumas: 4000 m
ne aukštis 700 ft
sniegas

TAF: ESNO 300530Z 3006/3010 01006KT 9999 BKN020 TEMPO 3006/3010 4000 -SN VV007

Orai ataskaitas ir orų prognozės (METAR, TAF).

turimą stotys yra geltonos ir raudonos taškus žemėlapyje.

Perkelti pele per norėdami pamatyti stoties vardą.

Tada spustelėkite, norėdami matyti oro stebėjimo ir prognozės.

Norėdami pakeisti žemėlapį: spustelėkite ant žalios mygtukų su juodo kryžiaus žemyn,; žalią mygtuką su brūkšneliu, jei norite nutolinti; arba žalių rodyklių gretimoms žemėlapius.


METAR-TAF: